Time;durP1;ratioP1;P1;durP2;ratioP2;P2;SDS_P1;SDS_P2;PMS_P1;PMS_P2;Temp;Humidity;BMP_temperature;BMP_pressure;BME280_temperature;BME280_humidity;BME280_pressure;Samples;Min_cycle;Max_cycle;Signal;HPM_P1;HPM_P2
2023/02/11 00:01:36;;;;;;;53.03;25.35;;;-1.60;99.90;;;;;;5051066;28;20032;-78
2023/02/11 00:04:03;;;;;;;62.05;27.95;;;-1.70;99.90;;;;;;5032688;28;20033;-79
2023/02/11 00:06:31;;;;;;;53.42;25.42;;;-1.70;99.90;;;;;;5053146;28;20033;-80
2023/02/11 00:08:57;;;;;;;54.55;25.88;;;-1.70;99.90;;;;;;5049451;28;20072;-80
2023/02/11 00:11:30;;;;;;;53.60;27.88;;;-1.60;99.90;;;;;;5053222;28;20021;-78
2023/02/11 00:13:57;;;;;;;47.58;23.67;;;-1.70;99.90;;;;;;5051583;28;20083;-79
2023/02/11 00:16:22;;;;;;;51.05;24.15;;;-1.70;99.90;;;;;;5052822;28;20385;-80
2023/02/11 00:18:49;;;;;;;50.35;25.38;;;-1.70;99.90;;;;;;5053432;28;20037;-78
2023/02/11 00:21:17;;;;;;;49.03;24.90;;;-1.70;99.90;;;;;;5048473;28;20071;-78
2023/02/11 00:23:45;;;;;;;48.15;24.45;;;-1.80;99.90;;;;;;5052490;28;20025;-78
2023/02/11 00:26:32;;;;;;;51.50;26.33;;;-1.80;99.90;;;;;;5046205;28;20560;-79
2023/02/11 00:28:59;;;;;;;52.88;25.45;;;-1.80;99.90;;;;;;5048721;28;20036;-79
2023/02/11 00:31:26;;;;;;;52.13;25.55;;;-1.80;99.90;;;;;;5046707;28;20030;-78
2023/02/11 00:33:52;;;;;;;51.67;25.45;;;-1.80;99.90;;;;;;5056239;28;20124;-79
2023/02/11 00:36:24;;;;;;;53.63;25.80;;;-1.80;99.90;;;;;;5049880;28;20060;-78
2023/02/11 00:38:51;;;;;;;48.63;24.58;;;-1.70;99.90;;;;;;5050456;28;20017;-80
2023/02/11 00:41:18;;;;;;;52.58;25.48;;;-1.70;99.90;;;;;;5052436;28;20032;-79
2023/02/11 00:43:44;;;;;;;58.78;26.33;;;-1.70;99.90;;;;;;5050631;28;20033;-79
2023/02/11 00:46:10;;;;;;;49.10;24.38;;;-1.60;99.90;;;;;;5053756;28;20040;-81
2023/02/11 00:48:36;;;;;;;52.00;25.38;;;-1.60;99.90;;;;;;5047812;28;20116;-78
2023/02/11 00:51:03;;;;;;;52.67;25.30;;;-1.60;99.90;;;;;;5040741;28;20059;-78
2023/02/11 00:53:29;;;;;;;54.40;25.33;;;-1.50;99.90;;;;;;5057139;28;20103;-80
2023/02/11 00:55:55;;;;;;;50.10;24.35;;;-1.50;99.90;;;;;;5051692;28;20028;-80
2023/02/11 00:58:23;;;;;;;53.95;25.55;;;-1.50;99.90;;;;;;5052575;28;20108;-79
2023/02/11 01:00:49;;;;;;;54.95;26.70;;;-1.50;99.90;;;;;;5055663;28;20036;-79
2023/02/11 01:03:15;;;;;;;52.58;25.20;;;-1.40;99.90;;;;;;5052469;28;20021;-80
2023/02/11 01:05:40;;;;;;;50.05;24.38;;;-1.40;99.90;;;;;;5048531;28;20044;-79
2023/02/11 01:08:08;;;;;;;55.50;26.13;;;-1.40;99.90;;;;;;5053152;28;20040;-80
2023/02/11 01:10:34;;;;;;;53.45;25.00;;;-1.40;99.90;;;;;;5049760;28;20378;-80
2023/02/11 01:13:01;;;;;;;53.97;24.83;;;-1.40;99.90;;;;;;5061140;28;20020;-80
2023/02/11 01:15:27;;;;;;;54.17;25.75;;;-1.40;99.90;;;;;;5049684;28;20029;-79
2023/02/11 01:17:53;;;;;;;49.60;25.73;;;-1.40;99.90;;;;;;5051021;28;20033;-79
2023/02/11 01:20:22;;;;;;;56.55;25.83;;;-1.40;99.90;;;;;;5050928;28;20029;-80
2023/02/11 01:22:48;;;;;;;52.33;25.10;;;-1.40;99.90;;;;;;5059190;28;20025;-78
2023/02/11 01:25:14;;;;;;;56.72;25.65;;;-1.40;99.90;;;;;;5050182;28;20083;-78
2023/02/11 01:27:40;;;;;;;51.35;24.65;;;-1.40;99.90;;;;;;5052615;28;20033;-79
2023/02/11 01:30:08;;;;;;;53.45;25.65;;;-1.40;99.90;;;;;;5049756;28;20115;-78
2023/02/11 01:32:34;;;;;;;47.83;23.88;;;-1.40;99.90;;;;;;5052666;28;20107;-80
2023/02/11 01:35:00;;;;;;;52.60;25.40;;;-1.40;99.90;;;;;;5049305;28;20304;-81
2023/02/11 01:37:27;;;;;;;51.50;25.55;;;-1.30;99.90;;;;;;5076732;28;20144;-79
2023/02/11 01:39:52;;;;;;;51.63;25.77;;;-1.30;99.90;;;;;;5049633;28;20025;-80
2023/02/11 01:42:20;;;;;;;52.97;24.30;;;-1.30;99.90;;;;;;5050914;28;20032;-78
2023/02/11 01:44:51;;;;;;;47.35;23.90;;;-1.20;99.90;;;;;;5049119;28;20083;-78
2023/02/11 01:47:17;;;;;;;56.78;25.20;;;-1.20;99.90;;;;;;5055531;28;20025;-78
2023/02/11 01:49:52;;;;;;;53.72;26.00;;;-1.10;99.90;;;;;;5048612;28;20026;-77
2023/02/11 01:52:28;;;;;;;51.13;24.58;;;-1.00;99.90;;;;;;5058178;28;20024;-80
2023/02/11 01:58:03;;;;;;;46.88;24.92;;;-1.00;99.90;;;;;;5065010;28;20053;-79
2023/02/11 02:00:40;;;;;;;48.53;24.13;;;-1.00;99.90;;;;;;5044077;28;20028;-78
2023/02/11 02:03:18;;;;;;;50.38;23.00;;;-1.00;99.90;;;;;;5034886;28;20037;-79
2023/02/11 02:05:47;;;;;;;44.78;23.90;;;-1.00;99.90;;;;;;5050109;28;20079;-80
2023/02/11 02:08:26;;;;;;;47.80;23.20;;;-0.90;99.90;;;;;;5041936;28;20064;-80
2023/02/11 02:10:55;;;;;;;44.53;24.25;;;-0.90;99.90;;;;;;5046957;28;20090;-80
2023/02/11 02:13:22;;;;;;;50.15;24.20;;;-0.90;99.90;;;;;;5051171;28;20037;-80
2023/02/11 02:15:53;;;;;;;47.35;23.70;;;-1.00;99.90;;;;;;5035081;28;20132;-79
2023/02/11 02:18:37;;;;;;;45.05;23.65;;;-1.10;99.90;;;;;;5032474;28;20060;-80
2023/02/11 02:21:06;;;;;;;50.05;23.98;;;-1.00;99.90;;;;;;5048068;28;20028;-80
2023/02/11 02:24:09;;;;;;;52.83;24.50;;;-1.10;99.90;;;;;;5057373;28;20033;-80
2023/02/11 02:26:57;;;;;;;49.65;22.67;;;-1.00;99.90;;;;;;5050221;28;20025;-80
2023/02/11 02:30:00;;;;;;;49.88;23.33;;;-1.10;99.90;;;;;;5050237;28;20025;-79
2023/02/11 02:32:40;;;;;;;47.83;22.88;;;-1.00;99.90;;;;;;5051800;28;20185;-81
2023/02/11 02:35:25;;;;;;;52.15;24.20;;;-1.00;99.90;;;;;;5047182;28;20029;-79
2023/02/11 02:38:14;;;;;;;49.00;23.20;;;-1.00;99.90;;;;;;5051147;28;20665;-79
2023/02/11 02:41:05;;;;;;;52.67;24.02;;;-1.10;99.90;;;;;;5051527;28;20051;-81
2023/02/11 02:43:32;;;;;;;51.67;23.95;;;-1.10;99.90;;;;;;5052163;28;20031;-80
2023/02/11 02:46:43;;;;;;;53.03;25.40;;;-1.10;99.90;;;;;;5035588;28;20029;-80
2023/02/11 02:49:13;;;;;;;53.25;22.77;;;-1.00;99.90;;;;;;5044868;28;20093;-78
2023/02/11 02:51:42;;;;;;;52.72;23.38;;;-1.00;99.90;;;;;;5046721;28;20539;-79
2023/02/11 02:54:32;;;;;;;48.97;24.02;;;-1.00;99.90;;;;;;5049004;28;20399;-77
2023/02/11 02:57:41;;;;;;;48.10;23.33;;;-1.00;99.90;;;;;;5053323;28;20021;-76
2023/02/11 03:00:45;;;;;;;53.55;23.83;;;-0.90;99.90;;;;;;5045154;28;20029;-79
2023/02/11 03:03:25;;;;;;;49.75;22.60;;;-0.90;99.90;;;;;;5046392;28;20089;-79
2023/02/11 03:06:10;;;;;;;45.78;22.63;;;-0.90;99.90;;;;;;5052076;28;20036;-79
2023/02/11 03:08:59;;;;;;;48.28;22.63;;;-0.80;99.90;;;;;;5046985;28;20374;-79
2023/02/11 03:11:27;;;;;;;51.47;23.45;;;-0.80;99.90;;;;;;5050082;28;20397;-80
2023/02/11 03:13:54;;;;;;;49.25;22.48;;;-0.80;99.90;;;;;;5055672;28;20399;-80
2023/02/11 03:16:26;;;;;;;47.85;23.23;;;-0.70;99.90;;;;;;5048039;28;20037;-80
2023/02/11 03:19:11;;;;;;;48.10;23.33;;;-0.70;99.90;;;;;;5051755;28;20097;-80
2023/02/11 03:21:39;;;;;;;50.55;24.10;;;-0.80;99.90;;;;;;5053635;28;20025;-80
2023/02/11 03:24:11;;;;;;;48.40;22.77;;;-0.80;99.90;;;;;;5043821;28;20036;-80
2023/02/11 03:26:45;;;;;;;48.83;23.67;;;-0.80;99.90;;;;;;5049365;28;20029;-79
2023/02/11 03:29:26;;;;;;;48.43;22.60;;;-0.80;99.90;;;;;;5044401;28;20033;-78
2023/02/11 03:32:00;;;;;;;47.38;22.65;;;-0.70;99.90;;;;;;5060397;28;20271;-78
2023/02/11 03:34:32;;;;;;;50.28;24.05;;;-0.70;99.90;;;;;;5048881;28;20033;-79
2023/02/11 03:37:01;;;;;;;44.33;22.48;;;-0.80;99.90;;;;;;5052938;28;20036;-78
2023/02/11 03:39:32;;;;;;;49.65;23.77;;;-0.90;99.90;;;;;;5049642;28;20499;-78
2023/02/11 03:42:00;;;;;;;44.13;22.65;;;-0.80;99.90;;;;;;5051530;28;20032;-78
2023/02/11 03:44:33;;;;;;;46.20;23.30;;;-0.80;99.90;;;;;;5049150;28;20061;-79
2023/02/11 03:47:02;;;;;;;50.22;23.88;;;-0.80;99.90;;;;;;5049153;28;20115;-78
2023/02/11 03:49:28;;;;;;;49.28;23.95;;;-0.80;99.90;;;;;;5043962;28;20025;-79
2023/02/11 03:51:56;;;;;;;51.90;26.08;;;-0.80;99.90;;;;;;5045172;28;20105;-77
2023/02/11 03:54:29;;;;;;;49.42;24.38;;;-0.80;99.90;;;;;;5052820;28;20041;-78
2023/02/11 03:56:58;;;;;;;46.90;23.50;;;-0.70;99.90;;;;;;5056764;28;20037;-79
2023/02/11 03:59:24;;;;;;;47.30;24.17;;;-0.70;99.90;;;;;;5047316;28;20033;-78
2023/02/11 04:01:50;;;;;;;50.13;23.52;;;-0.70;99.90;;;;;;5048494;28;20029;-79
2023/02/11 04:04:16;;;;;;;49.53;23.95;;;-0.70;99.90;;;;;;5054561;28;20028;-79
2023/02/11 04:06:43;;;;;;;48.33;23.33;;;-0.70;99.90;;;;;;5054323;28;20038;-79
2023/02/11 04:09:09;;;;;;;50.63;22.52;;;-0.80;99.90;;;;;;5050736;28;20057;-79
2023/02/11 04:11:35;;;;;;;49.53;24.17;;;-0.70;99.90;;;;;;5046290;28;20029;-79
2023/02/11 04:14:00;;;;;;;48.65;23.65;;;-0.70;99.90;;;;;;5057554;28;20035;-79
2023/02/11 04:16:26;;;;;;;42.95;21.48;;;-0.60;99.90;;;;;;5054912;28;20494;-79
2023/02/11 04:18:52;;;;;;;48.15;22.27;;;-0.70;99.90;;;;;;5052509;28;20040;-80
2023/02/11 04:21:18;;;;;;;49.88;22.13;;;-0.80;99.90;;;;;;5051980;28;20029;-79
2023/02/11 04:23:44;;;;;;;45.30;23.50;;;-0.90;99.90;;;;;;5061180;28;20025;-78
2023/02/11 04:26:09;;;;;;;49.67;23.35;;;-0.90;99.90;;;;;;5053469;28;20167;-80
2023/02/11 04:28:35;;;;;;;48.97;24.10;;;-1.00;99.90;;;;;;5055641;28;20025;-79
2023/02/11 04:31:01;;;;;;;52.88;23.65;;;-1.00;99.90;;;;;;5056455;28;20085;-77
2023/02/11 04:33:27;;;;;;;45.40;22.90;;;-1.00;99.90;;;;;;5043961;28;20033;-78
2023/02/11 04:35:52;;;;;;;45.15;22.63;;;-1.00;99.90;;;;;;5048534;28;20553;-79
2023/02/11 04:38:18;;;;;;;45.15;22.65;;;-1.00;99.90;;;;;;5055015;28;20025;-79
2023/02/11 04:40:44;;;;;;;47.00;22.10;;;-1.00;99.90;;;;;;5048780;28;20025;-79
2023/02/11 04:43:10;;;;;;;49.72;22.55;;;-0.90;99.90;;;;;;5047738;28;20025;-80
2023/02/11 04:45:35;;;;;;;46.72;23.58;;;-0.90;99.90;;;;;;5054600;28;20022;-79
2023/02/11 04:48:02;;;;;;;51.65;22.60;;;-0.80;99.90;;;;;;5052475;28;20110;-79
2023/02/11 04:50:29;;;;;;;43.55;22.25;;;-0.80;99.90;;;;;;5049281;28;20477;-80
2023/02/11 04:52:55;;;;;;;45.63;21.70;;;-0.80;99.90;;;;;;5058981;28;20041;-78
2023/02/11 04:55:21;;;;;;;43.95;21.15;;;-0.80;99.90;;;;;;5052572;28;20036;-80
2023/02/11 04:57:47;;;;;;;43.53;21.17;;;-0.80;99.90;;;;;;5054949;28;20036;-80
2023/02/11 05:00:13;;;;;;;48.72;22.50;;;-0.80;99.90;;;;;;5054831;28;20025;-79
2023/02/11 05:02:39;;;;;;;47.22;22.38;;;-0.80;99.90;;;;;;5059735;28;20029;-79
2023/02/11 05:05:05;;;;;;;48.25;21.65;;;-0.70;99.90;;;;;;5056019;28;20070;-80
2023/02/11 05:07:30;;;;;;;43.65;21.13;;;-0.60;99.90;;;;;;5056194;28;20029;-80
2023/02/11 05:09:56;;;;;;;46.53;20.65;;;-0.50;99.90;;;;;;5020898;28;20033;-79
2023/02/11 05:12:22;;;;;;;44.72;21.77;;;-0.40;99.90;;;;;;5049792;28;20497;-76
2023/02/11 05:14:48;;;;;;;41.65;21.08;;;-0.40;99.90;;;;;;5039575;28;20033;-79
2023/02/11 05:17:13;;;;;;;44.35;23.02;;;-0.40;99.90;;;;;;5055829;28;20075;-79
2023/02/11 05:19:41;;;;;;;41.95;20.13;;;-0.40;99.90;;;;;;5050965;28;20508;-79
2023/02/11 05:22:07;;;;;;;37.70;19.80;;;-0.40;99.90;;;;;;5038244;28;20051;-78
2023/02/11 05:24:33;;;;;;;44.15;21.92;;;-0.40;99.90;;;;;;5035955;28;20036;-80
2023/02/11 05:27:00;;;;;;;43.15;20.58;;;-0.30;99.90;;;;;;5055820;28;20041;-79
2023/02/11 05:29:26;;;;;;;39.88;20.80;;;-0.30;99.90;;;;;;5055934;28;20035;-79
2023/02/11 05:31:51;;;;;;;41.05;22.20;;;-0.20;99.90;;;;;;5055531;28;20082;-80
2023/02/11 05:34:17;;;;;;;48.53;22.38;;;-0.20;99.90;;;;;;5048765;28;20127;-81
2023/02/11 05:36:43;;;;;;;46.72;21.98;;;-0.20;99.90;;;;;;5053936;28;20044;-80
2023/02/11 05:39:09;;;;;;;46.15;21.70;;;-0.30;99.90;;;;;;5055045;28;20032;-79
2023/02/11 05:41:34;;;;;;;40.45;20.45;;;-0.30;99.90;;;;;;5052536;28;20086;-81
2023/02/11 05:44:00;;;;;;;41.08;20.50;;;-0.20;99.90;;;;;;5049812;28;20021;-80
2023/02/11 05:46:26;;;;;;;37.97;19.80;;;-0.20;99.90;;;;;;5052712;28;20040;-81
2023/02/11 05:48:52;;;;;;;41.40;20.33;;;-0.30;99.90;;;;;;5049947;28;20040;-79
2023/02/11 05:51:18;;;;;;;43.03;20.40;;;-0.30;99.90;;;;;;5056656;28;20031;-80
2023/02/11 05:53:43;;;;;;;41.22;20.30;;;-0.30;99.90;;;;;;5056430;28;20029;-80
2023/02/11 05:56:10;;;;;;;42.92;21.33;;;-0.30;99.90;;;;;;5052203;28;20397;-80
2023/02/11 05:58:37;;;;;;;42.67;20.45;;;-0.30;99.90;;;;;;5054855;28;20033;-79
2023/02/11 06:01:03;;;;;;;41.95;20.38;;;-0.30;99.90;;;;;;5058702;28;20021;-79
2023/02/11 06:03:29;;;;;;;40.00;20.70;;;-0.30;99.90;;;;;;5055363;28;20393;-80
2023/02/11 06:05:55;;;;;;;40.60;20.85;;;-0.30;99.90;;;;;;5053462;28;20025;-80
2023/02/11 06:08:20;;;;;;;35.85;20.15;;;-0.30;99.90;;;;;;5053048;28;20037;-80
2023/02/11 06:10:46;;;;;;;37.42;19.48;;;-0.30;99.90;;;;;;5050164;28;20025;-81
2023/02/11 06:13:12;;;;;;;40.10;19.88;;;-0.30;99.90;;;;;;5052716;28;20041;-80
2023/02/11 06:15:38;;;;;;;40.97;20.80;;;-0.30;99.90;;;;;;5030300;28;20555;-80
2023/02/11 06:18:04;;;;;;;41.95;20.02;;;-0.30;99.90;;;;;;5052997;28;20032;-80
2023/02/11 06:20:30;;;;;;;42.15;20.73;;;-0.20;99.90;;;;;;5049754;28;20101;-80
2023/02/11 06:22:56;;;;;;;41.85;20.30;;;-0.20;99.90;;;;;;5055446;28;20032;-80
2023/02/11 06:25:22;;;;;;;44.08;20.40;;;-0.20;99.90;;;;;;5053957;28;20048;-79
2023/02/11 06:27:47;;;;;;;42.88;20.65;;;-0.20;99.90;;;;;;5051949;28;20036;-80
2023/02/11 06:30:13;;;;;;;44.85;20.38;;;-0.20;99.90;;;;;;5046182;28;20133;-79
2023/02/11 06:32:39;;;;;;;42.70;19.90;;;-0.20;99.90;;;;;;5056081;28;20497;-79
2023/02/11 06:35:05;;;;;;;40.65;20.30;;;-0.20;99.90;;;;;;5051691;28;20067;-78
2023/02/11 06:37:35;;;;;;;38.08;19.83;;;-0.20;99.90;;;;;;5053845;28;20021;-79
2023/02/11 06:40:01;;;;;;;41.22;19.70;;;-0.20;99.90;;;;;;5050610;28;20087;-80
2023/02/11 06:42:27;;;;;;;38.15;19.80;;;-0.20;99.90;;;;;;5054839;28;20036;-79
2023/02/11 06:44:53;;;;;;;38.40;20.20;;;-0.30;99.90;;;;;;5049306;28;20112;-80
2023/02/11 06:47:19;;;;;;;42.55;20.50;;;-0.20;99.90;;;;;;5053262;28;20436;-78
2023/02/11 06:49:44;;;;;;;32.60;18.55;;;-0.20;99.90;;;;;;5047552;28;20044;-79
2023/02/11 06:52:10;;;;;;;35.92;18.70;;;-0.20;99.90;;;;;;5048714;28;20033;-80
2023/02/11 06:54:36;;;;;;;37.47;19.85;;;-0.20;99.90;;;;;;5054398;28;20453;-79
2023/02/11 06:57:02;;;;;;;36.85;18.13;;;-0.20;99.90;;;;;;5051391;28;20585;-78
2023/02/11 06:59:28;;;;;;;40.60;18.85;;;-0.10;99.90;;;;;;5049585;28;20036;-79
2023/02/11 07:01:56;;;;;;;33.40;17.45;;;-0.10;99.90;;;;;;5055442;28;20347;-81
2023/02/11 07:04:22;;;;;;;37.60;18.40;;;-0.10;99.90;;;;;;5047986;28;20083;-81
2023/02/11 07:06:48;;;;;;;37.70;18.77;;;-0.10;99.90;;;;;;5033975;28;20053;-77
2023/02/11 07:09:14;;;;;;;38.40;18.42;;;-0.10;99.90;;;;;;5049060;28;20041;-77
2023/02/11 07:11:39;;;;;;;39.22;19.98;;;-0.10;99.90;;;;;;5048592;28;20493;-78
2023/02/11 07:14:07;;;;;;;40.15;19.65;;;-0.10;99.90;;;;;;5051497;28;20083;-76
2023/02/11 07:16:33;;;;;;;41.65;20.20;;;-0.10;99.90;;;;;;5052966;28;20032;-77
2023/02/11 07:18:59;;;;;;;44.63;20.73;;;-0.10;99.90;;;;;;5049858;28;20052;-79
2023/02/11 07:21:25;;;;;;;40.28;19.73;;;-0.10;99.90;;;;;;5049524;28;20029;-79
2023/02/11 07:23:52;;;;;;;44.15;20.15;;;0.00;99.90;;;;;;5056888;28;20031;-79
2023/02/11 07:26:21;;;;;;;40.38;20.17;;;0.10;99.90;;;;;;5042070;28;20099;-79
2023/02/11 07:28:48;;;;;;;37.35;19.23;;;0.10;99.90;;;;;;5053031;28;20536;-79
2023/02/11 07:31:25;;;;;;;39.92;19.52;;;0.20;99.90;;;;;;5055104;28;20029;-79
2023/02/11 07:33:53;;;;;;;38.60;19.90;;;0.30;99.90;;;;;;5040776;28;20033;-77
2023/02/11 07:36:19;;;;;;;41.53;19.85;;;0.30;99.90;;;;;;5048993;28;20021;-79
2023/02/11 07:38:44;;;;;;;37.85;18.73;;;0.30;99.90;;;;;;5052790;28;20045;-78
2023/02/11 07:41:13;;;;;;;37.95;19.40;;;0.40;99.90;;;;;;5044700;28;20063;-79
2023/02/11 07:43:40;;;;;;;36.58;19.00;;;0.40;99.90;;;;;;5051089;28;20030;-78
2023/02/11 07:46:20;;;;;;;35.03;18.23;;;0.40;99.90;;;;;;5037655;28;20044;-79
2023/02/11 07:48:46;;;;;;;32.95;17.17;;;0.40;99.90;;;;;;5049856;28;20021;-78
2023/02/11 07:51:22;;;;;;;34.53;17.48;;;0.40;99.90;;;;;;5053139;28;20274;-78
2023/02/11 07:53:48;;;;;;;40.05;18.95;;;0.40;99.90;;;;;;5037423;28;20025;-79
2023/02/11 07:56:15;;;;;;;36.35;18.65;;;0.50;99.90;;;;;;5054484;28;20024;-80
2023/02/11 07:58:42;;;;;;;38.90;19.75;;;0.50;99.90;;;;;;5053672;28;20107;-79
2023/02/11 08:01:11;;;;;;;38.22;19.35;;;0.50;99.90;;;;;;5054440;28;20433;-77
2023/02/11 08:03:38;;;;;;;37.75;19.52;;;0.60;99.90;;;;;;5055319;28;20091;-80
2023/02/11 08:06:06;;;;;;;36.75;18.60;;;0.60;99.90;;;;;;5055556;28;20520;-80
2023/02/11 08:08:32;;;;;;;39.55;19.73;;;0.60;99.90;;;;;;5037970;28;20169;-80
2023/02/11 08:10:57;;;;;;;38.13;19.25;;;0.60;99.90;;;;;;5043809;28;20084;-80
2023/02/11 08:13:25;;;;;;;37.40;19.33;;;0.60;99.90;;;;;;5055270;28;20116;-80
2023/02/11 08:15:51;;;;;;;33.47;18.00;;;0.70;99.90;;;;;;5055044;28;20041;-79
2023/02/11 08:18:17;;;;;;;36.95;19.20;;;0.70;99.90;;;;;;5052507;28;20085;-80
2023/02/11 08:20:43;;;;;;;38.65;19.73;;;0.70;99.90;;;;;;5053533;28;20668;-80
2023/02/11 08:23:09;;;;;;;36.47;18.38;;;0.80;99.90;;;;;;5050890;28;20116;-80
2023/02/11 08:25:35;;;;;;;34.20;18.67;;;0.80;99.90;;;;;;5037278;28;20061;-77
2023/02/11 08:28:01;;;;;;;37.80;19.65;;;0.80;99.90;;;;;;5050086;28;20608;-78
2023/02/11 08:30:27;;;;;;;37.65;18.67;;;0.80;99.90;;;;;;5052239;28;20504;-79
2023/02/11 08:32:52;;;;;;;39.35;18.88;;;0.90;99.90;;;;;;5051639;28;20445;-79
2023/02/11 08:35:18;;;;;;;35.05;18.48;;;0.90;99.90;;;;;;5050095;28;20029;-78
2023/02/11 08:37:44;;;;;;;35.78;18.13;;;0.90;99.90;;;;;;5048304;28;20030;-77
2023/02/11 08:40:10;;;;;;;35.17;18.50;;;0.90;99.90;;;;;;5051482;28;20033;-78
2023/02/11 08:42:36;;;;;;;37.80;19.42;;;0.90;99.90;;;;;;5052463;28;20111;-78
2023/02/11 08:45:02;;;;;;;37.50;19.33;;;0.90;99.90;;;;;;5052609;28;20474;-78
2023/02/11 08:47:27;;;;;;;32.40;18.48;;;1.00;99.90;;;;;;5032408;28;20132;-78
2023/02/11 08:49:53;;;;;;;38.53;19.30;;;1.00;99.90;;;;;;5035635;28;20033;-78
2023/02/11 08:52:19;;;;;;;33.53;18.27;;;1.00;99.90;;;;;;5058030;28;20028;-78
2023/02/11 08:54:46;;;;;;;35.60;18.35;;;1.10;99.90;;;;;;5050003;28;20743;-79
2023/02/11 08:57:11;;;;;;;35.90;18.27;;;1.10;99.90;;;;;;5052658;28;20033;-79
2023/02/11 08:59:38;;;;;;;33.95;18.88;;;1.10;99.90;;;;;;5035550;28;20508;-78
2023/02/11 09:02:06;;;;;;;33.75;18.35;;;1.10;99.90;;;;;;5034709;28;20072;-79
2023/02/11 09:04:32;;;;;;;34.63;17.35;;;1.20;99.90;;;;;;5049300;28;20025;-78
2023/02/11 09:06:57;;;;;;;34.90;18.02;;;1.30;99.90;;;;;;5053905;28;20036;-79
2023/02/11 09:09:23;;;;;;;36.08;18.02;;;1.30;99.90;;;;;;5052044;28;20029;-77
2023/02/11 09:11:49;;;;;;;32.15;17.50;;;1.40;99.90;;;;;;5051036;28;20064;-78
2023/02/11 09:14:20;;;;;;;32.90;17.52;;;1.50;99.90;;;;;;5052389;28;20034;-79
2023/02/11 09:16:46;;;;;;;32.78;17.25;;;1.50;99.90;;;;;;5051245;28;20048;-78
2023/02/11 09:19:12;;;;;;;34.05;18.48;;;1.70;99.90;;;;;;5050633;28;20773;-79
2023/02/11 09:21:38;;;;;;;35.00;18.40;;;1.80;99.90;;;;;;5050023;28;20057;-79
2023/02/11 09:24:05;;;;;;;35.17;18.42;;;1.80;99.90;;;;;;5050878;28;20029;-79
2023/02/11 09:26:33;;;;;;;34.78;17.15;;;1.90;99.90;;;;;;5053012;28;20063;-79
2023/02/11 09:28:59;;;;;;;31.73;18.02;;;1.90;99.90;;;;;;5054064;28;20044;-77
2023/02/11 09:31:27;;;;;;;30.38;16.55;;;2.00;99.90;;;;;;5053236;28;20512;-78
2023/02/11 09:33:56;;;;;;;35.60;18.02;;;2.00;99.90;;;;;;5058321;28;20480;-77
2023/02/11 09:36:24;;;;;;;33.25;17.35;;;2.10;99.90;;;;;;5054750;28;20033;-78
2023/02/11 09:38:51;;;;;;;30.80;16.88;;;2.10;99.90;;;;;;5051505;28;20033;-78
2023/02/11 09:41:23;;;;;;;32.38;17.25;;;2.20;99.90;;;;;;5048274;28;20025;-78
2023/02/11 09:43:52;;;;;;;29.13;17.42;;;2.20;99.90;;;;;;5046904;28;20017;-79
2023/02/11 09:46:20;;;;;;;31.55;17.70;;;2.30;99.90;;;;;;5053931;28;20033;-79
2023/02/11 09:48:48;;;;;;;30.52;16.80;;;2.30;99.90;;;;;;5050923;28;20029;-78
2023/02/11 09:51:36;;;;;;;38.30;17.92;;;2.40;99.90;;;;;;5051772;28;20020;-78
2023/02/11 09:54:14;;;;;;;34.15;17.90;;;2.50;99.90;;;;;;5029236;28;20047;-78
2023/02/11 09:56:40;;;;;;;32.75;17.90;;;2.50;99.90;;;;;;5052435;28;20116;-78
2023/02/11 09:59:12;;;;;;;34.65;17.63;;;2.50;99.90;;;;;;5050104;28;20089;-78
2023/02/11 10:01:49;;;;;;;33.20;17.75;;;2.50;99.90;;;;;;5048608;28;20029;-79
2023/02/11 10:04:40;;;;;;;32.22;16.65;;;2.50;99.90;;;;;;5047408;28;20036;-77
2023/02/11 10:07:26;;;;;;;32.85;16.95;;;2.50;99.90;;;;;;5050545;28;20025;-78
2023/02/11 10:10:21;;;;;;;32.03;16.58;;;2.60;99.90;;;;;;5081868;28;20889;-79
2023/02/11 10:13:21;;;;;;;34.70;17.13;;;2.70;99.90;;;;;;5050082;28;20083;-78
2023/02/11 10:16:18;;;;;;;37.90;17.13;;;2.70;99.90;;;;;;5050226;28;20509;-79
2023/02/11 10:19:06;;;;;;;33.55;16.98;;;2.70;99.90;;;;;;5048294;28;20018;-79
2023/02/11 10:21:40;;;;;;;30.20;16.40;;;2.70;99.90;;;;;;5038488;28;20116;-76
2023/02/11 10:24:11;;;;;;;33.33;15.88;;;2.60;99.90;;;;;;5046476;28;20028;-78
2023/02/11 10:26:39;;;;;;;32.85;17.67;;;2.60;99.90;;;;;;5047653;28;20059;-80
2023/02/11 10:29:20;;;;;;;33.22;16.77;;;2.70;99.90;;;;;;5042879;28;20448;-78
2023/02/11 10:31:47;;;;;;;37.35;18.02;;;2.80;99.90;;;;;;5044998;28;20388;-79
2023/02/11 10:34:13;;;;;;;29.52;16.48;;;2.80;99.90;;;;;;5047166;28;20037;-80
2023/02/11 10:36:42;;;;;;;32.38;16.70;;;2.90;99.90;;;;;;5044016;28;20036;-78
2023/02/11 10:39:19;;;;;;;28.08;15.52;;;2.90;99.90;;;;;;5048715;28;20029;-78
2023/02/11 10:41:50;;;;;;;32.35;17.00;;;2.90;99.90;;;;;;5049017;28;20081;-80
2023/02/11 10:44:22;;;;;;;31.90;16.83;;;3.00;99.90;;;;;;5048251;28;20542;-77
2023/02/11 10:46:49;;;;;;;28.88;16.02;;;3.00;99.90;;;;;;5046356;28;20108;-77
2023/02/11 10:49:39;;;;;;;38.50;17.52;;;3.00;99.90;;;;;;5040180;28;20037;-77
2023/02/11 10:52:17;;;;;;;36.90;17.40;;;3.00;99.90;;;;;;5033909;28;20069;-76
2023/02/11 10:54:55;;;;;;;29.95;17.25;;;3.10;99.90;;;;;;5044748;28;20033;-78
2023/02/11 10:57:23;;;;;;;32.20;17.17;;;3.20;99.90;;;;;;5047005;28;20032;-79
2023/02/11 10:59:57;;;;;;;32.53;16.92;;;3.20;99.90;;;;;;5044123;28;20498;-79
2023/02/11 11:02:33;;;;;;;28.90;15.88;;;3.20;99.90;;;;;;5052321;28;20035;-77
2023/02/11 11:05:13;;;;;;;35.25;17.48;;;3.30;99.90;;;;;;5050106;28;20454;-76
2023/02/11 11:07:50;;;;;;;30.45;16.75;;;3.30;99.90;;;;;;5050527;28;20033;-76
2023/02/11 11:10:35;;;;;;;33.92;17.80;;;3.30;99.90;;;;;;5048564;28;20611;-78
2023/02/11 11:13:01;;;;;;;29.70;16.65;;;3.30;99.90;;;;;;5041619;28;20443;-79
2023/02/11 11:15:30;;;;;;;37.97;17.50;;;3.40;99.90;;;;;;5041959;28;20128;-78
2023/02/11 11:18:15;;;;;;;36.45;17.58;;;3.50;99.90;;;;;;5046366;28;20033;-80
2023/02/11 11:20:58;;;;;;;29.13;16.58;;;3.40;99.90;;;;;;5049124;28;20044;-79
2023/02/11 11:23:25;;;;;;;30.58;16.45;;;3.40;99.90;;;;;;5048152;28;20025;-78
2023/02/11 11:26:11;;;;;;;32.42;16.80;;;3.40;99.90;;;;;;5051215;28;20456;-80
2023/02/11 11:28:40;;;;;;;33.67;17.25;;;3.30;99.90;;;;;;5051728;28;20053;-76
2023/02/11 11:31:13;;;;;;;30.38;17.65;;;3.30;99.90;;;;;;5046529;28;20029;-79
2023/02/11 11:33:43;;;;;;;35.85;18.45;;;3.40;99.90;;;;;;5058935;28;20021;-77
2023/02/11 11:36:12;;;;;;;32.75;17.45;;;3.40;99.90;;;;;;5050089;28;20111;-78
2023/02/11 11:39:00;;;;;;;32.42;16.92;;;3.50;99.90;;;;;;5050349;28;20049;-77
2023/02/11 11:41:31;;;;;;;29.70;16.90;;;3.40;99.90;;;;;;5049752;28;20104;-78
2023/02/11 11:43:58;;;;;;;33.67;16.95;;;3.50;99.90;;;;;;5053194;28;20028;-78
2023/02/11 11:46:31;;;;;;;31.92;16.65;;;3.50;99.90;;;;;;5055373;28;20089;-79
2023/02/11 11:49:10;;;;;;;33.33;17.10;;;3.50;99.90;;;;;;5050182;28;20665;-77
2023/02/11 11:51:39;;;;;;;33.70;17.00;;;3.50;99.90;;;;;;5048138;28;20586;-79
2023/02/11 11:54:10;;;;;;;31.83;17.33;;;3.50;99.90;;;;;;5046302;28;20052;-78
2023/02/11 11:56:49;;;;;;;28.30;16.23;;;3.40;99.90;;;;;;5051872;28;20566;-79
2023/02/11 11:59:16;;;;;;;31.02;16.60;;;3.40;99.90;;;;;;5037759;28;20021;-78
2023/02/11 12:01:53;;;;;;;34.30;17.55;;;3.40;99.90;;;;;;5043669;28;20036;-78
2023/02/11 12:04:35;;;;;;;29.35;15.95;;;3.40;99.90;;;;;;5043341;28;20033;-79
2023/02/11 12:07:31;;;;;;;29.48;16.40;;;3.40;99.90;;;;;;5048523;28;20109;-77
2023/02/11 12:10:16;;;;;;;;;;;3.30;99.90;;;;;;5044688;28;20037;-77
2023/02/11 12:12:52;;;;;;;35.58;15.63;;;3.30;99.90;;;;;;5053796;28;19912;-77
2023/02/11 12:15:36;;;;;;;;;;;3.30;99.90;;;;;;5052563;28;20037;-78
2023/02/11 12:18:04;;;;;;;34.70;16.45;;;3.30;99.90;;;;;;5052099;28;19952;-78
2023/02/11 12:20:39;;;;;;;31.52;17.08;;;3.30;99.90;;;;;;5050815;28;20029;-78
2023/02/11 12:23:23;;;;;;;33.00;17.30;;;3.20;99.90;;;;;;5046969;28;20076;-78
2023/02/11 12:26:25;;;;;;;33.20;17.80;;;3.20;99.90;;;;;;5065483;28;20028;-78
2023/02/11 12:29:12;;;;;;;39.08;17.98;;;3.20;99.90;;;;;;5050059;28;20534;-78
2023/02/11 12:32:00;;;;;;;33.50;16.70;;;3.20;99.90;;;;;;5060524;28;20029;-78
2023/02/11 12:35:11;;;;;;;31.10;15.82;;;3.20;99.90;;;;;;5043626;28;20021;-77
2023/02/11 12:37:52;;;;;;;33.90;19.08;;;3.20;99.90;;;;;;5049668;28;20504;-77
2023/02/11 12:40:41;;;;;;;31.25;17.98;;;3.20;99.90;;;;;;5044418;28;20017;-78
2023/02/11 12:43:28;;;;;;;32.42;16.85;;;3.20;99.90;;;;;;5048846;28;20509;-78
2023/02/11 12:45:59;;;;;;;30.45;16.08;;;3.20;99.90;;;;;;5061057;28;20022;-78
2023/02/11 12:48:49;;;;;;;33.03;16.52;;;3.30;99.90;;;;;;5045782;28;20083;-78
2023/02/11 12:51:27;;;;;;;33.80;18.75;;;3.30;99.90;;;;;;5038907;28;20637;-77
2023/02/11 12:54:08;;;;;;;28.58;15.07;;;3.30;99.90;;;;;;5045682;28;20025;-79